Time;durP1;ratioP1;P1;durP2;ratioP2;P2;SDS_P1;SDS_P2;PMS_P1;PMS_P2;Temp;Humidity;BMP_temperature;BMP_pressure;BME280_temperature;BME280_humidity;BME280_pressure;Samples;Min_cycle;Max_cycle;Signal;HPM_P1;HPM_P2
2022/06/11 00:00:19;;;;;;;20.35;18.48;;;;;;;17.88;78.71;94342.28;4977428;28;20224;-67
2022/06/11 00:02:44;;;;;;;19.92;18.00;;;;;;;17.76;79.65;94339.44;4982472;28;20231;-66
2022/06/11 00:05:10;;;;;;;21.90;19.88;;;;;;;17.85;80.16;94344.34;4982074;28;20230;-71
2022/06/11 00:07:36;;;;;;;21.90;19.73;;;;;;;17.81;81.13;94345.78;4980721;28;20208;-70
2022/06/11 00:10:04;;;;;;;20.35;18.45;;;;;;;17.72;81.88;94332.91;4986018;28;20211;-66
2022/06/11 00:12:30;;;;;;;20.98;19.15;;;;;;;17.71;81.59;94339.28;4975727;28;20231;-70
2022/06/11 00:14:56;;;;;;;20.23;18.52;;;;;;;17.73;81.22;94337.22;4982282;28;20227;-67
2022/06/11 00:17:23;;;;;;;20.33;18.48;;;;;;;17.75;81.34;94341.31;4990605;28;20330;-72
2022/06/11 00:19:49;;;;;;;19.58;17.98;;;;;;;17.79;81.34;94339.06;4992634;28;20674;-70
2022/06/11 00:22:17;;;;;;;19.48;17.77;;;;;;;17.80;80.62;94343.31;5003511;28;20231;-69
2022/06/11 00:24:42;;;;;;;20.20;18.40;;;;;;;17.77;80.53;94336.56;4998501;28;20215;-65
2022/06/11 00:27:09;;;;;;;21.08;19.13;;;;;;;17.64;81.93;94337.47;4992266;28;20227;-68
2022/06/11 00:29:36;;;;;;;21.60;19.77;;;;;;;17.63;83.29;94332.34;4994401;28;20231;-69
2022/06/11 00:32:03;;;;;;;21.45;19.55;;;;;;;17.61;83.90;94335.25;4994783;28;20219;-71
2022/06/11 00:34:28;;;;;;;21.75;19.75;;;;;;;17.74;83.69;94346.81;5000809;28;20250;-71
2022/06/11 00:36:54;;;;;;;20.92;19.02;;;;;;;17.75;83.21;94343.13;4991952;28;20473;-77
2022/06/11 00:39:23;;;;;;;20.95;19.05;;;;;;;17.74;83.09;94346.81;5009017;28;20255;-76
2022/06/11 00:41:52;;;;;;;21.80;19.88;;;;;;;17.63;83.11;94337.66;5001244;28;20235;-69
2022/06/11 00:44:18;;;;;;;21.13;19.23;;;;;;;17.70;83.46;94337.66;4991977;28;20242;-66
2022/06/11 00:47:22;;;;;;;21.45;19.35;;;;;;;17.74;82.72;94341.50;4979206;28;20298;-71
2022/06/11 00:49:52;;;;;;;20.58;18.73;;;;;;;17.59;82.97;94339.94;4991368;28;20494;-76
2022/06/11 00:52:35;;;;;;;20.33;18.52;;;;;;;17.59;83.32;94349.75;5001834;28;20211;-71
2022/06/11 00:55:16;;;;;;;19.50;17.63;;;;;;;17.62;83.24;94338.72;5000920;28;20226;-78
2022/06/11 00:57:47;;;;;;;20.42;18.52;;;;;;;17.57;83.49;94331.34;5011446;28;20240;-70
2022/06/11 01:00:30;;;;;;;19.77;17.98;;;;;;;17.41;83.59;94337.97;5002201;28;20238;-70
2022/06/11 01:02:57;;;;;;;20.73;18.65;;;;;;;17.47;84.47;94330.97;5009777;28;20227;-70
2022/06/11 01:05:29;;;;;;;20.30;18.35;;;;;;;17.52;84.06;94341.00;4990911;28;20230;-72
2022/06/11 01:07:54;;;;;;;20.42;18.52;;;;;;;17.58;83.71;94343.59;4999568;28;20227;-73
2022/06/11 01:10:29;;;;;;;19.50;17.63;;;;;;;17.55;83.84;94338.72;5004428;28;20203;-69
2022/06/11 01:13:06;;;;;;;20.17;18.17;;;;;;;17.51;83.93;94336.69;4996310;28;20250;-73
2022/06/11 01:15:54;;;;;;;19.08;17.48;;;;;;;17.57;83.82;94325.22;4993766;28;20358;-73
2022/06/11 01:18:38;;;;;;;19.60;17.92;;;;;;;17.56;83.86;94331.56;4999377;28;20235;-69
2022/06/11 01:21:35;;;;;;;18.63;17.02;;;;;;;17.54;83.74;94337.09;5010849;28;20231;-78
2022/06/11 01:24:07;;;;;;;17.88;16.20;;;;;;;17.46;83.90;94340.00;5004816;28;20690;-78
2022/06/11 01:26:53;;;;;;;18.60;16.92;;;;;;;17.47;84.18;94338.97;5001704;28;20230;-72
2022/06/11 01:29:30;;;;;;;17.15;15.75;;;;;;;17.55;83.66;94349.34;5010515;28;20318;-77
2022/06/11 01:32:07;;;;;;;17.50;15.90;;;;;;;17.52;83.34;94347.13;4994491;28;20223;-75
2022/06/11 01:34:54;;;;;;;18.30;16.70;;;;;;;17.54;83.72;94347.72;4996536;28;20211;-76
2022/06/11 01:37:30;;;;;;;17.15;15.65;;;;;;;17.46;83.72;94352.47;5002050;28;20210;-71
2022/06/11 01:40:22;;;;;;;17.95;16.35;;;;;;;17.40;84.09;94351.44;4993831;28;20289;-72
2022/06/11 01:42:53;;;;;;;17.25;15.75;;;;;;;17.41;83.94;94351.25;4962498;28;20258;-66
2022/06/11 01:45:35;;;;;;;16.83;15.32;;;;;;;17.30;84.23;94348.44;4962411;28;20235;-71
2022/06/11 01:48:05;;;;;;;17.45;15.95;;;;;;;17.24;85.13;94347.44;4960437;28;20694;-69
2022/06/11 01:50:37;;;;;;;17.67;16.15;;;;;;;17.27;85.40;94340.88;4956652;28;20235;-66
2022/06/11 01:53:44;;;;;;;16.92;15.52;;;;;;;17.34;85.42;94347.78;4958677;28;20223;-76
2022/06/11 01:56:36;;;;;;;17.15;15.65;;;;;;;17.30;84.79;94345.78;4975968;28;20223;-77
2022/06/11 01:59:30;;;;;;;17.20;15.68;;;;;;;17.41;84.54;94348.59;4962887;28;20223;-72
2022/06/11 02:01:59;;;;;;;17.13;15.52;;;;;;;17.46;84.12;94357.78;4931197;28;20313;-72
2022/06/11 02:04:45;;;;;;;18.20;16.60;;;;;;;17.47;83.16;94354.09;4932372;28;20315;-70
2022/06/11 02:07:19;;;;;;;16.20;14.80;;;;;;;17.37;83.77;94352.72;4959499;28;20675;-66
2022/06/11 02:10:10;;;;;;;16.77;15.38;;;;;;;17.32;84.28;94354.34;4937433;28;20251;-66
2022/06/11 02:12:41;;;;;;;16.92;15.52;;;;;;;17.41;83.89;94350.44;4934704;28;20328;-71
2022/06/11 02:15:57;;;;;;;16.23;14.63;;;;;;;17.44;82.94;94349.19;4931313;29;20268;-70
2022/06/11 02:18:27;;;;;;;15.07;13.77;;;;;;;17.36;83.84;94344.94;4907224;29;20246;-76
2022/06/11 02:20:59;;;;;;;12.57;11.57;;;;;;;17.33;83.62;94356.81;4901376;29;20226;-71
2022/06/11 02:23:41;;;;;;;14.55;13.30;;;;;;;17.28;83.50;94353.13;4911365;29;20225;-70
2022/06/11 02:26:17;;;;;;;14.27;13.07;;;;;;;17.39;83.43;94349.81;4915877;29;20374;-70
2022/06/11 02:28:45;;;;;;;13.52;12.45;;;;;;;17.31;82.71;94352.72;4924207;29;20332;-70
2022/06/11 02:31:15;;;;;;;13.85;12.75;;;;;;;17.28;82.99;94348.63;4928901;29;20214;-65
2022/06/11 02:33:43;;;;;;;12.88;11.77;;;;;;;17.27;83.51;94357.66;4927991;28;20226;-66
2022/06/11 02:36:10;;;;;;;12.57;11.38;;;;;;;17.23;83.30;94359.06;4915143;29;20263;-70
2022/06/11 02:38:37;;;;;;;12.63;11.57;;;;;;;17.20;83.61;94354.19;4939234;28;20315;-69
2022/06/11 02:41:16;;;;;;;13.60;12.48;;;;;;;17.16;83.80;94352.94;4963632;28;20236;-76
2022/06/11 02:43:42;;;;;;;12.73;11.65;;;;;;;17.22;83.63;94356.63;4969021;28;20239;-76
2022/06/11 02:48:53;;;;;;;12.57;11.57;;;;;;;17.18;84.02;94350.91;4974202;28;20239;-69
2022/06/11 02:51:21;;;;;;;12.90;11.80;;;;;;;17.12;84.39;94354.41;4960270;28;20219;-76
2022/06/11 02:53:47;;;;;;;12.75;11.75;;;;;;;17.12;83.40;94354.41;4972195;28;20219;-72
2022/06/11 02:56:13;;;;;;;12.73;11.73;;;;;;;17.17;82.95;94354.59;4996943;28;20227;-71
2022/06/11 02:58:39;;;;;;;12.85;11.85;;;;;;;17.23;83.34;94355.59;5003668;28;20319;-69
2022/06/11 03:01:05;;;;;;;12.32;11.23;;;;;;;17.24;82.88;94355.41;5004835;28;20280;-70
2022/06/11 03:03:31;;;;;;;12.32;11.23;;;;;;;17.28;82.62;94355.78;4994923;28;20309;-71
2022/06/11 03:05:58;;;;;;;13.10;11.90;;;;;;;17.19;82.95;94361.34;5000401;28;20330;-64
2022/06/11 03:08:24;;;;;;;12.88;11.85;;;;;;;17.17;83.58;94359.91;4994485;28;20226;-69
2022/06/11 03:10:54;;;;;;;12.65;11.65;;;;;;;17.13;83.44;94362.19;5001606;28;20223;-70
2022/06/11 03:13:21;;;;;;;12.48;11.48;;;;;;;17.22;83.76;94364.63;5004184;28;20211;-71
2022/06/11 03:15:46;;;;;;;13.10;12.00;;;;;;;17.25;83.36;94375.63;5001671;28;20581;-72
2022/06/11 03:18:13;;;;;;;13.07;11.98;;;;;;;17.19;83.32;94358.69;5002415;28;20314;-71
2022/06/11 03:20:39;;;;;;;11.80;10.85;;;;;;;17.08;84.21;94369.97;4996065;28;20235;-68
2022/06/11 03:23:06;;;;;;;12.30;11.25;;;;;;;17.04;84.15;94367.91;4996906;28;20226;-69
2022/06/11 03:25:31;;;;;;;11.77;10.88;;;;;;;17.16;84.32;94379.50;5002151;28;20194;-75
2022/06/11 03:27:57;;;;;;;12.50;11.57;;;;;;;17.34;82.62;94376.22;4997867;28;20203;-65
2022/06/11 03:30:23;;;;;;;11.10;10.20;;;;;;;17.34;81.92;94379.69;4998806;28;20250;-75
2022/06/11 03:32:49;;;;;;;12.18;11.13;;;;;;;17.27;81.93;94381.56;5004739;28;20243;-70
2022/06/11 03:35:14;;;;;;;12.02;11.05;;;;;;;17.27;82.91;94383.38;5004624;28;20278;-69
2022/06/11 03:37:41;;;;;;;11.93;10.85;;;;;;;17.31;82.83;94379.28;5001396;28;20234;-65
2022/06/11 03:40:07;;;;;;;12.48;11.48;;;;;;;17.36;82.34;94380.28;4997748;28;20219;-70
2022/06/11 03:42:33;;;;;;;11.75;10.85;;;;;;;17.30;81.95;94375.00;4991046;28;20226;-69
2022/06/11 03:44:59;;;;;;;12.15;11.15;;;;;;;17.38;82.47;94374.78;5003672;28;20237;-65
2022/06/11 03:47:25;;;;;;;11.65;10.63;;;;;;;17.34;82.97;94370.91;4998012;28;20224;-70
2022/06/11 03:49:50;;;;;;;11.60;10.60;;;;;;;17.48;82.12;94377.81;4998911;28;20318;-65
2022/06/11 03:52:16;;;;;;;12.23;11.25;;;;;;;17.28;83.23;94379.72;4997924;28;20290;-64
2022/06/11 03:54:42;;;;;;;11.75;10.75;;;;;;;17.36;82.77;94367.00;5000930;28;20223;-65
2022/06/11 03:57:08;;;;;;;11.65;10.68;;;;;;;17.44;82.91;94368.63;4996853;28;20238;-64
2022/06/11 03:59:33;;;;;;;10.85;9.98;;;;;;;17.50;82.36;94381.06;4992413;28;20231;-69
2022/06/11 04:02:00;;;;;;;11.25;10.35;;;;;;;17.49;82.34;94379.44;5001376;28;20235;-75
2022/06/11 04:04:26;;;;;;;11.27;10.38;;;;;;;17.49;82.68;94379.44;5003994;28;20241;-70
2022/06/11 04:06:56;;;;;;;10.90;10.00;;;;;;;17.29;82.83;94381.34;5001459;28;20279;-68
2022/06/11 04:09:43;;;;;;;11.25;10.35;;;;;;;17.37;83.21;94378.44;5000232;28;20223;-65
2022/06/11 04:12:15;;;;;;;12.93;11.75;;;;;;;17.50;81.53;94378.41;5003837;28;20395;-74
2022/06/11 04:14:45;;;;;;;12.63;11.52;;;;;;;17.41;82.03;94385.00;5004726;28;20329;-68
2022/06/11 04:17:23;;;;;;;13.50;12.27;;;;;;;17.27;82.96;94383.38;4988802;28;20251;-69
2022/06/11 04:19:50;;;;;;;13.23;12.02;;;;;;;17.23;84.06;94393.63;4983587;28;20246;-69
2022/06/11 04:22:18;;;;;;;13.00;11.70;;;;;;;17.26;85.05;94395.03;4998303;28;20214;-75
2022/06/11 04:24:44;;;;;;;13.70;12.50;;;;;;;17.30;85.88;94396.28;5000074;28;20227;-69
2022/06/11 04:27:11;;;;;;;13.30;12.20;;;;;;;17.35;85.75;94393.81;4997238;28;20306;-72
2022/06/11 04:29:47;;;;;;;13.30;12.00;;;;;;;17.34;85.74;94394.81;4986081;28;20230;-69
2022/06/11 04:32:15;;;;;;;13.35;12.25;;;;;;;17.48;85.49;94395.59;5005097;28;20214;-65
2022/06/11 04:34:42;;;;;;;13.88;12.57;;;;;;;17.52;85.25;94400.28;4999807;28;20198;-69
2022/06/11 04:37:13;;;;;;;14.32;12.90;;;;;;;17.51;84.82;94390.69;5003577;28;20353;-73
2022/06/11 04:39:40;;;;;;;14.23;13.00;;;;;;;17.55;84.85;94397.19;4998147;28;20223;-71
2022/06/11 04:42:06;;;;;;;14.57;13.30;;;;;;;17.58;84.90;94402.09;5000161;28;20236;-72
2022/06/11 04:44:31;;;;;;;15.93;14.35;;;;;;;17.57;84.67;94395.16;5012251;28;20285;-72
2022/06/11 04:46:57;;;;;;;14.13;12.93;;;;;;;17.59;84.59;94403.75;4997053;28;20223;-68
2022/06/11 04:49:22;;;;;;;13.10;11.98;;;;;;;17.63;84.50;94396.97;4998586;28;20266;-75
2022/06/11 04:51:48;;;;;;;13.00;11.80;;;;;;;17.71;83.88;94405.75;5004218;28;20783;-65
2022/06/11 04:54:14;;;;;;;11.65;10.65;;;;;;;17.42;83.62;94402.56;4998134;28;20254;-69
2022/06/11 04:56:40;;;;;;;10.95;9.95;;;;;;;17.23;82.99;94416.72;4992984;28;20223;-72
2022/06/11 04:59:06;;;;;;;10.15;9.35;;;;;;;17.35;83.20;94420.38;4998848;28;20346;-69
2022/06/11 05:01:32;;;;;;;10.77;9.77;;;;;;;17.44;82.59;94416.47;4997377;28;20211;-73
2022/06/11 05:03:58;;;;;;;11.23;10.32;;;;;;;17.48;83.33;94417.69;5002915;28;20274;-66
2022/06/11 05:06:28;;;;;;;10.48;9.57;;;;;;;17.43;83.29;94422.81;4993564;28;20333;-64
2022/06/11 05:08:53;;;;;;;10.85;9.95;;;;;;;17.53;83.23;94423.16;4996549;28;20210;-64
2022/06/11 05:11:19;;;;;;;9.30;8.52;;;;;;;17.60;82.95;94423.97;5003359;28;20234;-69
2022/06/11 05:13:45;;;;;;;8.18;7.47;;;;;;;17.25;82.42;94428.75;5000250;28;20203;-65
2022/06/11 05:16:14;;;;;;;7.70;7.00;;;;;;;17.14;81.83;94426.75;5002694;28;20298;-66
2022/06/11 05:18:40;;;;;;;7.13;6.57;;;;;;;17.41;81.15;94430.16;5010818;28;20318;-66
2022/06/11 05:21:05;;;;;;;6.60;6.07;;;;;;;17.49;81.20;94434.44;5003927;28;20319;-65
2022/06/11 05:23:31;;;;;;;7.45;6.72;;;;;;;17.65;80.17;94436.66;4997407;28;20224;-70
2022/06/11 05:25:57;;;;;;;7.78;7.18;;;;;;;17.63;80.48;94439.50;4994217;28;20231;-69
2022/06/11 05:28:27;;;;;;;7.60;6.93;;;;;;;17.87;79.60;94444.38;5006533;28;20206;-69
2022/06/11 05:30:54;;;;;;;5.95;5.40;;;;;;;17.22;79.25;94442.47;4999499;28;20262;-72
2022/06/11 05:33:21;;;;;;;5.45;5.05;;;;;;;17.49;77.61;94450.41;5004805;28;20317;-76
2022/06/11 05:35:47;;;;;;;5.75;5.25;;;;;;;17.66;77.36;94445.44;5007932;28;20234;-65
2022/06/11 05:38:19;;;;;;;5.82;5.32;;;;;;;17.65;77.17;94455.25;5003212;28;20286;-74
2022/06/11 05:40:48;;;;;;;5.72;5.22;;;;;;;17.58;78.61;94454.44;5005344;28;20211;-69
2022/06/11 05:43:14;;;;;;;5.22;4.72;;;;;;;17.35;78.45;94460.25;5003966;28;20211;-65
2022/06/11 05:45:46;;;;;;;4.97;4.68;;;;;;;17.04;80.14;94459.03;4999361;28;20262;-74
2022/06/11 05:48:12;;;;;;;4.85;4.40;;;;;;;17.01;81.64;94459.44;5001058;28;20238;-70
2022/06/11 05:50:45;;;;;;;5.05;4.65;;;;;;;16.87;81.93;94460.47;4996147;28;20258;-72
2022/06/11 05:53:13;;;;;;;4.53;4.20;;;;;;;17.09;81.90;94463.75;4995165;28;20246;-69
2022/06/11 05:55:40;;;;;;;5.05;4.55;;;;;;;17.35;82.20;94471.69;4995402;28;20203;-72
2022/06/11 05:58:08;;;;;;;4.93;4.53;;;;;;;17.50;82.01;94467.97;5001715;28;20199;-76
2022/06/11 06:00:35;;;;;;;4.88;4.47;;;;;;;17.75;80.72;94463.63;4994673;28;20302;-65
2022/06/11 06:03:00;;;;;;;5.68;5.20;;;;;;;17.60;80.35;94466.50;5000620;28;20231;-68
2022/06/11 06:05:31;;;;;;;5.32;4.93;;;;;;;17.47;80.82;94477.16;5004178;28;20223;-68
2022/06/11 06:07:56;;;;;;;5.68;5.22;;;;;;;17.83;80.26;94476.72;4999968;28;20246;-63
2022/06/11 06:10:22;;;;;;;6.28;5.68;;;;;;;17.93;78.55;94473.59;5003646;28;20237;-68
2022/06/11 06:12:48;;;;;;;6.40;5.88;;;;;;;17.96;78.67;94473.19;4994318;28;20223;-72
2022/06/11 06:15:17;;;;;;;6.57;6.07;;;;;;;18.07;78.86;94475.19;4996045;28;20593;-63
2022/06/11 06:17:43;;;;;;;6.20;5.70;;;;;;;18.23;77.68;94475.72;4995644;28;20230;-65
2022/06/11 06:20:13;;;;;;;5.95;5.45;;;;;;;18.21;76.67;94477.78;5001083;28;20215;-68
2022/06/11 06:22:39;;;;;;;6.00;3.95;;;;;;;18.10;75.27;94479.28;4996701;28;20211;-66
2022/06/11 06:25:05;;;;;;;3.42;3.20;;;;;;;18.32;75.38;94481.63;4994199;28;20282;-65
2022/06/11 06:27:30;;;;;;;3.50;3.30;;;;;;;18.28;75.16;94481.22;4999690;28;20376;-69
2022/06/11 06:29:56;;;;;;;4.95;4.28;;;;;;;18.22;76.27;94488.22;5007454;28;20234;-67
2022/06/11 06:32:21;;;;;;;4.15;3.85;;;;;;;18.15;76.47;94483.94;5002605;28;20409;-63
2022/06/11 06:34:46;;;;;;;4.78;4.47;;;;;;;18.19;76.10;94493.16;4995785;28;20199;-71
2022/06/11 06:37:13;;;;;;;4.90;4.38;;;;;;;18.20;77.28;94494.78;5001269;28;20203;-63
2022/06/11 06:39:38;;;;;;;4.72;4.32;;;;;;;18.17;76.60;94501.31;5004718;28;20238;-67
2022/06/11 06:42:06;;;;;;;4.68;4.28;;;;;;;18.12;76.77;94495.81;4998490;28;20437;-62
2022/06/11 06:44:32;;;;;;;4.82;4.32;;;;;;;17.99;77.83;94494.06;5010639;28;20285;-66
2022/06/11 06:46:57;;;;;;;4.80;4.40;;;;;;;18.26;77.59;94492.09;5004249;28;20222;-65
2022/06/11 06:49:23;;;;;;;4.60;4.20;;;;;;;18.13;77.71;94497.47;5007849;28;20202;-64
2022/06/11 06:51:48;;;;;;;5.35;4.85;;;;;;;18.52;76.47;94484.97;4995751;28;20230;-67
2022/06/11 06:54:14;;;;;;;6.57;5.97;;;;;;;18.64;76.19;94493.94;4997350;28;20345;-67
2022/06/11 06:56:39;;;;;;;5.70;5.30;;;;;;;18.76;74.89;94496.75;5003947;28;20232;-66
2022/06/11 06:59:05;;;;;;;5.47;5.07;;;;;;;18.89;74.59;94499.31;5002117;28;20227;-66
2022/06/11 07:01:31;;;;;;;4.75;4.43;;;;;;;18.88;73.83;94495.03;5000943;28;20214;-67
2022/06/11 07:03:58;;;;;;;6.18;5.65;;;;;;;18.94;74.36;94491.50;4995412;28;20273;-67
2022/06/11 07:06:24;;;;;;;6.03;5.53;;;;;;;19.13;73.20;94486.25;5004660;28;20251;-67
2022/06/11 07:08:51;;;;;;;5.63;5.13;;;;;;;19.30;72.22;94491.81;5003293;28;20265;-65
2022/06/11 07:11:18;;;;;;;5.68;5.28;;;;;;;19.46;71.57;94482.47;5006719;28;20215;-66
2022/06/11 07:13:43;;;;;;;5.75;5.25;;;;;;;19.53;71.87;94496.56;5005947;28;20203;-67
2022/06/11 07:16:10;;;;;;;5.15;4.75;;;;;;;19.62;71.10;94497.91;4990948;28;20273;-67
2022/06/11 07:19:03;;;;;;;5.57;4.70;;;;;;;19.53;70.10;94497.38;4989977;28;20250;-67
2022/06/11 07:21:35;;;;;;;6.53;5.93;;;;;;;19.17;71.55;94506.91;4992243;28;20250;-66
2022/06/11 07:24:05;;;;;;;6.00;5.50;;;;;;;19.41;70.42;94501.00;4991154;28;20230;-63
2022/06/11 07:26:36;;;;;;;7.13;5.38;;;;;;;19.55;70.03;94502.50;5001639;28;20270;-63
2022/06/11 07:29:09;;;;;;;6.25;5.72;;;;;;;19.34;72.36;94511.69;5002870;28;20216;-68
2022/06/11 07:31:35;;;;;;;5.97;5.47;;;;;;;19.33;72.21;94510.06;4997480;28;20211;-68
2022/06/11 07:34:00;;;;;;;5.93;5.43;;;;;;;19.25;71.13;94508.50;5003871;28;20207;-66
2022/06/11 07:36:26;;;;;;;5.40;4.90;;;;;;;19.24;71.50;94516.69;5004741;28;20254;-68
2022/06/11 07:38:51;;;;;;;5.65;5.22;;;;;;;19.22;71.49;94513.44;5005542;28;20234;-67
2022/06/11 07:41:17;;;;;;;6.18;5.50;;;;;;;19.26;71.60;94520.78;5003949;28;20241;-67
2022/06/11 07:43:43;;;;;;;5.88;5.38;;;;;;;19.49;71.77;94527.38;4994373;28;20241;-63
2022/06/11 07:46:08;;;;;;;4.95;4.53;;;;;;;19.71;69.97;94523.28;5003821;28;20306;-64
2022/06/11 07:48:34;;;;;;;5.07;4.60;;;;;;;19.14;70.77;94525.19;5005142;28;20222;-64
2022/06/11 07:51:00;;;;;;;5.32;4.82;;;;;;;19.68;68.51;94528.25;4990595;28;20320;-66
2022/06/11 07:53:26;;;;;;;5.07;4.68;;;;;;;19.90;67.10;94523.31;4997737;28;20261;-67
2022/06/11 07:55:53;;;;;;;4.50;4.20;;;;;;;20.01;67.92;94526.03;5001573;28;20227;-67
2022/06/11 07:58:23;;;;;;;5.75;4.47;;;;;;;20.21;67.08;94512.47;5003274;28;20294;-67
2022/06/11 08:00:50;;;;;;;5.20;4.80;;;;;;;20.43;67.10;94515.50;4996254;28;20219;-68
2022/06/11 08:03:18;;;;;;;5.60;5.20;;;;;;;20.52;68.70;94513.31;4978981;28;20223;-67
2022/06/11 08:05:44;;;;;;;5.50;5.05;;;;;;;20.95;68.34;94516.88;4992014;28;20222;-68
2022/06/11 08:08:11;;;;;;;5.90;5.40;;;;;;;21.09;65.50;94511.13;4996200;28;20227;-67
2022/06/11 08:10:40;;;;;;;5.43;4.93;;;;;;;21.34;63.55;94520.81;5000327;28;20398;-66
2022/06/11 08:13:07;;;;;;;5.32;4.93;;;;;;;21.49;64.53;94525.72;4996750;28;20195;-67
2022/06/11 08:15:33;;;;;;;5.05;4.65;;;;;;;21.21;65.96;94521.00;4999982;28;20230;-68
2022/06/11 08:17:59;;;;;;;4.63;4.22;;;;;;;21.31;64.61;94510.56;4998775;28;20222;-68
2022/06/11 08:20:29;;;;;;;5.03;4.57;;;;;;;21.69;63.97;94523.53;4997455;28;20239;-67
2022/06/11 08:22:55;;;;;;;6.72;4.50;;;;;;;21.77;62.99;94525.84;4994749;28;20231;-68
2022/06/11 08:25:22;;;;;;;5.18;4.78;;;;;;;21.80;62.63;94521.91;5003322;28;20216;-67
2022/06/11 08:27:49;;;;;;;5.45;5.05;;;;;;;22.13;60.56;94520.47;4997414;28;20246;-66
2022/06/11 08:30:17;;;;;;;4.53;4.22;;;;;;;22.29;59.28;94522.44;4996989;28;20242;-68
2022/06/11 08:32:43;;;;;;;4.80;4.40;;;;;;;21.95;57.91;94521.44;4998964;28;20365;-67
2022/06/11 08:35:10;;;;;;;4.85;4.45;;;;;;;21.44;61.61;94522.91;4998134;28;20251;-67
2022/06/11 08:37:36;;;;;;;5.28;4.88;;;;;;;21.57;59.55;94510.16;5001916;28;20207;-67
2022/06/11 08:40:04;;;;;;;5.70;5.20;;;;;;;20.46;64.07;94506.22;5002616;28;20267;-66
2022/06/11 08:42:39;;;;;;;5.18;4.78;;;;;;;19.96;65.41;94515.22;4997729;28;20216;-67
2022/06/11 08:45:27;;;;;;;5.50;5.05;;;;;;;20.25;64.95;94504.84;4990962;28;20225;-67
2022/06/11 08:48:01;;;;;;;5.90;5.40;;;;;;;20.30;66.10;94504.97;4992555;28;20231;-67
2022/06/11 08:50:32;;;;;;;4.75;4.25;;;;;;;20.33;64.66;94503.72;4994544;28;20310;-67
2022/06/11 08:53:00;;;;;;;4.65;4.22;;;;;;;20.32;64.56;94512.78;4994105;28;20282;-66
2022/06/11 08:55:35;;;;;;;5.03;4.65;;;;;;;21.07;63.72;94504.38;5000898;28;20289;-67
2022/06/11 08:58:03;;;;;;;4.68;4.38;;;;;;;21.51;61.46;94499.56;4992643;28;20234;-67
2022/06/11 09:00:47;;;;;;;5.25;4.75;;;;;;;21.44;61.73;94504.19;5001639;28;20235;-65
2022/06/11 09:03:19;;;;;;;5.70;5.07;;;;;;;21.52;60.78;94503.88;4981097;28;20238;-65
2022/06/11 09:06:03;;;;;;;4.97;4.57;;;;;;;21.20;61.90;94497.97;4998327;28;20227;-68
2022/06/11 09:08:37;;;;;;;4.18;3.88;;;;;;;21.67;59.63;94490.84;4991617;28;20226;-65
2022/06/11 09:11:17;;;;;;;5.15;4.78;;;;;;;22.00;59.78;94492.09;4997537;28;20214;-66
2022/06/11 09:14:04;;;;;;;4.88;4.50;;;;;;;21.74;59.69;94496.88;5008117;28;20230;-66
2022/06/11 09:16:35;;;;;;;4.90;4.55;;;;;;;21.94;58.80;94499.19;4992927;28;20234;-66
2022/06/11 09:19:38;;;;;;;4.60;4.30;;;;;;;22.11;58.17;94499.28;4996430;28;20199;-67
2022/06/11 09:22:14;;;;;;;5.18;4.78;;;;;;;22.00;57.51;94498.25;4992541;28;20482;-67
2022/06/11 09:25:01;;;;;;;5.13;4.60;;;;;;;22.30;57.85;94499.16;5010428;28;20229;-63
2022/06/11 09:27:36;;;;;;;6.05;4.43;;;;;;;22.51;56.87;94498.50;4993172;28;20254;-62
2022/06/11 09:30:17;;;;;;;5.75;5.35;;;;;;;22.03;57.68;94502.34;5008441;28;20317;-65
2022/06/11 09:32:50;;;;;;;5.47;4.97;;;;;;;22.14;58.70;94495.31;4999931;28;20330;-65
2022/06/11 09:35:22;;;;;;;6.97;5.28;;;;;;;22.53;57.72;94496.38;4991337;28;20219;-66
2022/06/11 09:38:13;;;;;;;4.70;4.30;;;;;;;22.45;55.20;94494.94;4989873;28;20301;-65
2022/06/11 09:40:55;;;;;;;5.28;4.78;;;;;;;22.64;54.81;94495.56;4992891;28;20202;-66
2022/06/11 09:43:51;;;;;;;4.50;4.20;;;;;;;22.89;53.26;94492.50;4994635;28;20241;-66
2022/06/11 09:46:27;;;;;;;5.53;5.13;;;;;;;22.55;54.55;94504.19;4996813;28;20235;-66
2022/06/11 09:49:07;;;;;;;5.15;4.75;;;;;;;22.46;57.30;94509.94;5002826;28;20227;-68
2022/06/11 09:51:43;;;;;;;4.75;4.22;;;;;;;22.53;56.88;94509.78;4992639;28;20253;-68
2022/06/11 09:54:25;;;;;;;5.13;4.72;;;;;;;22.30;56.70;94509.88;5006911;28;20218;-66
2022/06/11 09:57:05;;;;;;;4.68;4.38;;;;;;;22.31;55.85;94514.19;4992677;28;20281;-63
2022/06/11 09:59:49;;;;;;;4.97;4.57;;;;;;;22.52;55.61;94524.25;5013068;28;20226;-67
2022/06/11 10:05:40;;;;;;;5.10;4.60;;;;;;;22.62;57.47;94515.59;4972656;28;20370;-64
2022/06/11 10:08:38;;;;;;;6.78;4.93;;;;;;;22.42;59.76;94513.31;4964382;28;20227;-68
2022/06/11 10:11:09;;;;;;;4.50;4.13;;;;;;;22.48;54.85;94506.19;4966573;28;20232;-62
2022/06/11 10:13:43;;;;;;;4.40;4.00;;;;;;;22.72;55.48;94505.06;4967953;28;20212;-68
2022/06/11 10:16:31;;;;;;;5.05;3.90;;;;;;;22.62;55.55;94513.72;4959085;28;20331;-67
2022/06/11 10:19:22;;;;;;;3.83;3.42;;;;;;;22.67;54.47;94507.66;4960708;28;20227;-67
2022/06/11 10:22:05;;;;;;;3.60;3.33;;;;;;;21.96;55.30;94515.03;4957130;28;20258;-64
2022/06/11 10:24:34;;;;;;;4.00;3.70;;;;;;;21.91;56.04;94504.19;4946464;28;20244;-65
2022/06/11 10:27:17;;;;;;;4.72;3.80;;;;;;;21.61;59.20;94513.19;4950356;28;20224;-64
2022/06/11 10:29:56;;;;;;;3.92;3.63;;;;;;;21.33;58.64;94511.97;4961843;28;20237;-62
2022/06/11 10:32:36;;;;;;;3.92;3.63;;;;;;;21.45;59.58;94522.69;4958522;28;20273;-66
2022/06/11 10:35:19;;;;;;;5.43;4.18;;;;;;;21.14;60.87;94529.13;4960268;28;20224;-63
2022/06/11 10:37:51;;;;;;;4.25;3.95;;;;;;;20.72;63.07;94542.50;4967680;28;20219;-63
2022/06/11 10:40:37;;;;;;;4.78;4.22;;;;;;;20.52;67.30;94550.72;4963278;28;20318;-66
2022/06/11 10:43:08;;;;;;;8.13;4.80;;;;;;;20.53;69.06;94556.88;4999679;28;20266;-66
2022/06/11 10:45:33;;;;;;;6.18;5.43;;;;;;;20.38;69.37;94567.94;4990042;28;20232;-70
2022/06/11 10:48:02;;;;;;;5.20;4.70;;;;;;;20.16;69.53;94560.38;4988667;28;20250;-66
2022/06/11 10:50:35;;;;;;;8.55;5.07;;;;;;;19.86;72.15;94564.78;4989329;28;20253;-66
2022/06/11 10:53:13;;;;;;;5.63;4.60;;;;;;;19.75;71.24;94561.00;4989958;28;20294;-64
2022/06/11 10:55:56;;;;;;;4.95;4.43;;;;;;;19.31;71.45;94555.59;4991777;28;20272;-72
2022/06/11 10:58:37;;;;;;;5.07;4.57;;;;;;;18.67;73.68;94556.59;4984357;28;20546;-65
2022/06/11 11:01:10;;;;;;;5.85;4.80;;;;;;;18.46;74.91;94563.84;4988647;28;20281;-64
2022/06/11 11:03:48;;;;;;;5.20;4.60;;;;;;;18.46;75.11;94557.72;4987732;28;20241;-67
2022/06/11 11:06:30;;;;;;;5.40;5.00;;;;;;;19.02;74.84;94557.03;4998956;28;20282;-67
2022/06/11 11:08:59;;;;;;;6.15;5.60;;;;;;;19.28;73.79;94558.69;4996704;28;20215;-71
2022/06/11 11:11:38;;;;;;;7.93;5.78;;;;;;;19.54;73.62;94564.84;4987081;28;20242;-69
2022/06/11 11:14:39;;;;;;;6.63;6.03;;;;;;;19.60;73.64;94563.97;4998598;28;20269;-70
2022/06/11 11:17:13;;;;;;;6.88;6.18;;;;;;;19.58;73.00;94569.53;5006110;28;20238;-72
2022/06/11 11:19:43;;;;;;;7.35;6.72;;;;;;;19.83;73.62;94558.03;4995669;28;20314;-68
2022/06/11 11:22:11;;;;;;;7.35;6.57;;;;;;;20.11;72.51;94562.91;5006021;28;20289;-67
2022/06/11 11:24:36;;;;;;;6.40;5.90;;;;;;;20.17;70.59;94564.69;4999349;28;20222;-67
2022/06/11 11:27:28;;;;;;;6.47;5.88;;;;;;;20.10;71.29;94560.44;5003601;28;20231;-68
2022/06/11 11:30:22;;;;;;;6.80;6.20;;;;;;;20.22;71.68;94556.81;4980983;28;20225;-66
2022/06/11 11:32:48;;;;;;;5.88;5.47;;;;;;;20.55;70.27;94558.31;4965554;28;20363;-70
2022/06/11 11:35:16;;;;;;;5.90;5.03;;;;;;;20.64;69.41;94554.28;4963324;28;20224;-70
2022/06/11 11:37:41;;;;;;;4.38;4.00;;;;;;;20.83;67.87;94552.41;4967473;28;20219;-68
2022/06/11 11:40:26;;;;;;;4.55;4.15;;;;;;;21.20;65.13;94544.28;4966044;28;20258;-70
2022/06/11 11:42:56;;;;;;;4.30;4.00;;;;;;;21.48;65.74;94546.31;4980866;28;20240;-69
2022/06/11 11:45:28;;;;;;;4.93;4.53;;;;;;;21.38;64.17;94539.91;4968264;28;20246;-69
2022/06/11 11:48:02;;;;;;;4.32;4.03;;;;;;;21.58;64.43;94551.91;4967152;28;20340;-72
2022/06/11 11:50:34;;;;;;;4.82;4.43;;;;;;;21.87;63.77;94551.22;4979552;28;20270;-68
2022/06/11 11:53:18;;;;;;;4.15;3.85;;;;;;;22.19;61.74;94543.66;4981455;28;20215;-66